sensor_id;sensor_type;location;lat;lon;timestamp;temperature;humidity
64499;SHT31;51087;55.718;21.122;2023-06-26T00:01:42;15.71;99.99
64499;SHT31;51087;55.718;21.122;2023-06-26T00:04:08;15.70;99.99
64499;SHT31;51087;55.718;21.122;2023-06-26T00:06:39;15.54;99.99
64499;SHT31;51087;55.718;21.122;2023-06-26T00:09:05;15.49;99.99
64499;SHT31;51087;55.718;21.122;2023-06-26T00:11:30;15.49;99.99
64499;SHT31;51087;55.718;21.122;2023-06-26T00:13:58;15.43;99.99
64499;SHT31;51087;55.718;21.122;2023-06-26T00:16:25;15.35;99.99
64499;SHT31;51087;55.718;21.122;2023-06-26T00:18:51;15.31;99.99
64499;SHT31;51087;55.718;21.122;2023-06-26T00:21:16;15.32;99.99
64499;SHT31;51087;55.718;21.122;2023-06-26T00:23:42;15.24;99.76
64499;SHT31;51087;55.718;21.122;2023-06-26T00:26:07;15.16;99.99
64499;SHT31;51087;55.718;21.122;2023-06-26T00:28:34;15.15;99.98
64499;SHT31;51087;55.718;21.122;2023-06-26T00:30:59;15.12;99.89
64499;SHT31;51087;55.718;21.122;2023-06-26T00:33:25;15.09;99.88
64499;SHT31;51087;55.718;21.122;2023-06-26T00:35:50;15.04;99.78
64499;SHT31;51087;55.718;21.122;2023-06-26T00:38:15;14.98;99.96
64499;SHT31;51087;55.718;21.122;2023-06-26T00:40:42;14.94;99.90
64499;SHT31;51087;55.718;21.122;2023-06-26T00:43:08;14.88;99.91
64499;SHT31;51087;55.718;21.122;2023-06-26T00:45:33;14.84;99.98
64499;SHT31;51087;55.718;21.122;2023-06-26T00:47:59;14.80;99.95
64499;SHT31;51087;55.718;21.122;2023-06-26T00:50:24;14.77;99.99
64499;SHT31;51087;55.718;21.122;2023-06-26T00:52:50;14.73;99.94
64499;SHT31;51087;55.718;21.122;2023-06-26T00:55:15;14.77;99.83
64499;SHT31;51087;55.718;21.122;2023-06-26T00:57:41;14.68;99.85
64499;SHT31;51087;55.718;21.122;2023-06-26T01:00:08;14.64;99.80
64499;SHT31;51087;55.718;21.122;2023-06-26T01:02:35;14.61;99.69
64499;SHT31;51087;55.718;21.122;2023-06-26T01:05:01;14.63;99.63
64499;SHT31;51087;55.718;21.122;2023-06-26T01:07:32;14.57;99.46
64499;SHT31;51087;55.718;21.122;2023-06-26T01:10:03;14.57;99.32
64499;SHT31;51087;55.718;21.122;2023-06-26T01:12:29;14.59;99.32
64499;SHT31;51087;55.718;21.122;2023-06-26T01:14:55;14.53;99.20
64499;SHT31;51087;55.718;21.122;2023-06-26T01:17:21;14.47;99.13
64499;SHT31;51087;55.718;21.122;2023-06-26T01:19:48;14.46;99.05
64499;SHT31;51087;55.718;21.122;2023-06-26T01:22:38;14.44;99.07
64499;SHT31;51087;55.718;21.122;2023-06-26T01:27:39;14.34;98.87
64499;SHT31;51087;55.718;21.122;2023-06-26T01:30:06;14.33;98.86
64499;SHT31;51087;55.718;21.122;2023-06-26T01:32:32;14.34;98.86
64499;SHT31;51087;55.718;21.122;2023-06-26T01:34:59;14.32;98.70
64499;SHT31;51087;55.718;21.122;2023-06-26T01:37:24;14.30;98.56
64499;SHT31;51087;55.718;21.122;2023-06-26T01:39:50;14.26;98.51
64499;SHT31;51087;55.718;21.122;2023-06-26T01:42:16;14.25;98.44
64499;SHT31;51087;55.718;21.122;2023-06-26T01:44:45;14.22;98.32
64499;SHT31;51087;55.718;21.122;2023-06-26T01:47:15;14.28;98.14
64499;SHT31;51087;55.718;21.122;2023-06-26T01:49:56;14.22;98.02
64499;SHT31;51087;55.718;21.122;2023-06-26T01:55:19;14.34;97.60
64499;SHT31;51087;55.718;21.122;2023-06-26T01:57:47;14.29;97.47
64499;SHT31;51087;55.718;21.122;2023-06-26T02:00:16;14.28;97.40
64499;SHT31;51087;55.718;21.122;2023-06-26T02:02:44;14.28;97.06
64499;SHT31;51087;55.718;21.122;2023-06-26T02:05:09;14.26;96.78
64499;SHT31;51087;55.718;21.122;2023-06-26T02:07:35;14.25;96.84
64499;SHT31;51087;55.718;21.122;2023-06-26T02:10:00;14.26;96.52
64499;SHT31;51087;55.718;21.122;2023-06-26T02:12:26;14.30;96.21
64499;SHT31;51087;55.718;21.122;2023-06-26T02:14:51;14.30;96.08
64499;SHT31;51087;55.718;21.122;2023-06-26T02:17:17;14.37;95.76
64499;SHT31;51087;55.718;21.122;2023-06-26T02:19:42;14.40;95.51
64499;SHT31;51087;55.718;21.122;2023-06-26T02:22:15;14.43;95.42
64499;SHT31;51087;55.718;21.122;2023-06-26T02:24:42;14.37;95.42
64499;SHT31;51087;55.718;21.122;2023-06-26T02:27:08;14.40;95.51
64499;SHT31;51087;55.718;21.122;2023-06-26T02:29:33;14.44;95.11
64499;SHT31;51087;55.718;21.122;2023-06-26T02:31:59;14.46;94.74
64499;SHT31;51087;55.718;21.122;2023-06-26T02:34:24;14.49;94.66
64499;SHT31;51087;55.718;21.122;2023-06-26T02:36:50;14.59;94.26
64499;SHT31;51087;55.718;21.122;2023-06-26T02:39:15;14.64;93.95
64499;SHT31;51087;55.718;21.122;2023-06-26T02:41:41;14.71;93.54
64499;SHT31;51087;55.718;21.122;2023-06-26T02:44:06;14.87;93.12
64499;SHT31;51087;55.718;21.122;2023-06-26T02:46:32;14.89;92.96
64499;SHT31;51087;55.718;21.122;2023-06-26T02:48:59;14.88;92.77
64499;SHT31;51087;55.718;21.122;2023-06-26T02:51:24;14.88;92.76
64499;SHT31;51087;55.718;21.122;2023-06-26T02:53:50;14.88;92.79
64499;SHT31;51087;55.718;21.122;2023-06-26T02:56:15;14.88;92.72
64499;SHT31;51087;55.718;21.122;2023-06-26T02:58:41;14.88;92.80
64499;SHT31;51087;55.718;21.122;2023-06-26T03:01:06;14.89;92.86
64499;SHT31;51087;55.718;21.122;2023-06-26T03:03:31;14.89;92.88
64499;SHT31;51087;55.718;21.122;2023-06-26T03:06:08;14.94;92.98
64499;SHT31;51087;55.718;21.122;2023-06-26T03:08:36;14.98;92.94
64499;SHT31;51087;55.718;21.122;2023-06-26T03:11:02;14.97;93.05
64499;SHT31;51087;55.718;21.122;2023-06-26T03:13:28;15.04;92.96
64499;SHT31;51087;55.718;21.122;2023-06-26T03:15:53;15.06;93.02
64499;SHT31;51087;55.718;21.122;2023-06-26T03:18:19;15.24;92.85
64499;SHT31;51087;55.718;21.122;2023-06-26T03:20:44;15.33;92.51
64499;SHT31;51087;55.718;21.122;2023-06-26T03:23:10;15.36;92.33
64499;SHT31;51087;55.718;21.122;2023-06-26T03:25:35;15.46;92.14
64499;SHT31;51087;55.718;21.122;2023-06-26T03:28:00;15.54;91.82
64499;SHT31;51087;55.718;21.122;2023-06-26T03:30:26;15.60;91.58
64499;SHT31;51087;55.718;21.122;2023-06-26T03:32:51;15.66;91.35
64499;SHT31;51087;55.718;21.122;2023-06-26T03:35:16;15.64;91.41
64499;SHT31;51087;55.718;21.122;2023-06-26T03:37:42;15.67;91.61
64499;SHT31;51087;55.718;21.122;2023-06-26T03:40:10;15.67;91.48
64499;SHT31;51087;55.718;21.122;2023-06-26T03:42:36;15.71;91.42
64499;SHT31;51087;55.718;21.122;2023-06-26T03:45:01;15.76;91.37
64499;SHT31;51087;55.718;21.122;2023-06-26T03:47:27;15.74;91.38
64499;SHT31;51087;55.718;21.122;2023-06-26T03:49:52;15.80;91.41
64499;SHT31;51087;55.718;21.122;2023-06-26T03:52:18;15.79;91.46
64499;SHT31;51087;55.718;21.122;2023-06-26T03:54:43;15.87;91.48
64499;SHT31;51087;55.718;21.122;2023-06-26T03:57:09;15.90;91.44
64499;SHT31;51087;55.718;21.122;2023-06-26T03:59:34;15.93;91.38
64499;SHT31;51087;55.718;21.122;2023-06-26T04:01:59;15.96;91.53
64499;SHT31;51087;55.718;21.122;2023-06-26T04:04:25;16.07;91.32
64499;SHT31;51087;55.718;21.122;2023-06-26T04:06:50;16.08;91.41
64499;SHT31;51087;55.718;21.122;2023-06-26T04:09:16;16.12;91.37
64499;SHT31;51087;55.718;21.122;2023-06-26T04:11:42;16.22;91.29
64499;SHT31;51087;55.718;21.122;2023-06-26T04:14:07;16.28;91.10
64499;SHT31;51087;55.718;21.122;2023-06-26T04:16:33;16.35;91.18
64499;SHT31;51087;55.718;21.122;2023-06-26T04:18:58;16.35;91.22
64499;SHT31;51087;55.718;21.122;2023-06-26T04:21:24;16.53;90.92
64499;SHT31;51087;55.718;21.122;2023-06-26T04:23:52;16.52;91.02
64499;SHT31;51087;55.718;21.122;2023-06-26T04:26:17;16.57;91.18
64499;SHT31;51087;55.718;21.122;2023-06-26T04:28:43;16.64;91.00
64499;SHT31;51087;55.718;21.122;2023-06-26T04:31:08;16.67;91.15
64499;SHT31;51087;55.718;21.122;2023-06-26T04:33:35;16.72;91.27
64499;SHT31;51087;55.718;21.122;2023-06-26T04:36:04;16.77;91.14
64499;SHT31;51087;55.718;21.122;2023-06-26T04:38:33;16.83;91.20
64499;SHT31;51087;55.718;21.122;2023-06-26T04:41:02;16.91;91.03
64499;SHT31;51087;55.718;21.122;2023-06-26T04:43:28;17.00;91.02
64499;SHT31;51087;55.718;21.122;2023-06-26T04:45:54;17.11;90.72
64499;SHT31;51087;55.718;21.122;2023-06-26T04:48:19;17.15;90.70
64499;SHT31;51087;55.718;21.122;2023-06-26T04:50:45;17.31;90.39
64499;SHT31;51087;55.718;21.122;2023-06-26T04:53:19;17.36;90.26
64499;SHT31;51087;55.718;21.122;2023-06-26T04:55:44;17.39;90.41
64499;SHT31;51087;55.718;21.122;2023-06-26T04:58:10;17.52;89.96
64499;SHT31;51087;55.718;21.122;2023-06-26T05:00:35;17.59;89.86
64499;SHT31;51087;55.718;21.122;2023-06-26T05:03:01;17.59;89.88
64499;SHT31;51087;55.718;21.122;2023-06-26T05:05:27;17.76;89.25
64499;SHT31;51087;55.718;21.122;2023-06-26T05:07:54;17.83;89.18
64499;SHT31;51087;55.718;21.122;2023-06-26T05:10:19;17.90;89.02
64499;SHT31;51087;55.718;21.122;2023-06-26T05:12:45;17.98;88.82
64499;SHT31;51087;55.718;21.122;2023-06-26T05:15:10;18.04;88.56
64499;SHT31;51087;55.718;21.122;2023-06-26T05:17:35;18.15;88.23
64499;SHT31;51087;55.718;21.122;2023-06-26T05:20:01;18.15;87.90
64499;SHT31;51087;55.718;21.122;2023-06-26T05:22:26;18.20;88.09
64499;SHT31;51087;55.718;21.122;2023-06-26T05:24:54;18.31;88.05
64499;SHT31;51087;55.718;21.122;2023-06-26T05:27:20;18.40;87.51
64499;SHT31;51087;55.718;21.122;2023-06-26T05:29:48;18.45;87.28
64499;SHT31;51087;55.718;21.122;2023-06-26T05:32:15;18.60;86.68
64499;SHT31;51087;55.718;21.122;2023-06-26T05:34:47;18.70;86.70
64499;SHT31;51087;55.718;21.122;2023-06-26T05:37:16;18.75;86.39
64499;SHT31;51087;55.718;21.122;2023-06-26T05:39:43;18.82;86.13
64499;SHT31;51087;55.718;21.122;2023-06-26T05:42:09;18.80;85.89
64499;SHT31;51087;55.718;21.122;2023-06-26T05:44:35;18.93;85.37
64499;SHT31;51087;55.718;21.122;2023-06-26T05:47:00;18.89;84.78
64499;SHT31;51087;55.718;21.122;2023-06-26T05:49:26;18.87;84.95
64499;SHT31;51087;55.718;21.122;2023-06-26T05:51:51;18.96;84.44
64499;SHT31;51087;55.718;21.122;2023-06-26T05:54:17;18.99;84.71
64499;SHT31;51087;55.718;21.122;2023-06-26T05:56:42;19.07;84.62
64499;SHT31;51087;55.718;21.122;2023-06-26T05:59:09;19.10;84.58
64499;SHT31;51087;55.718;21.122;2023-06-26T06:01:38;19.17;82.94
64499;SHT31;51087;55.718;21.122;2023-06-26T06:04:04;19.11;83.59
64499;SHT31;51087;55.718;21.122;2023-06-26T06:06:29;19.11;83.06
64499;SHT31;51087;55.718;21.122;2023-06-26T06:08:55;19.07;83.58
64499;SHT31;51087;55.718;21.122;2023-06-26T06:11:20;18.99;84.50
64499;SHT31;51087;55.718;21.122;2023-06-26T06:13:45;18.97;86.14
64499;SHT31;51087;55.718;21.122;2023-06-26T06:16:11;19.04;85.75
64499;SHT31;51087;55.718;21.122;2023-06-26T06:18:36;19.17;81.05
64499;SHT31;51087;55.718;21.122;2023-06-26T06:21:01;19.25;80.27
64499;SHT31;51087;55.718;21.122;2023-06-26T06:23:27;19.38;78.08
64499;SHT31;51087;55.718;21.122;2023-06-26T06:25:52;19.47;77.59
64499;SHT31;51087;55.718;21.122;2023-06-26T06:28:18;19.55;77.21
64499;SHT31;51087;55.718;21.122;2023-06-26T06:30:43;19.58;81.11
64499;SHT31;51087;55.718;21.122;2023-06-26T06:33:08;19.55;80.62
64499;SHT31;51087;55.718;21.122;2023-06-26T06:35:34;19.31;85.43
64499;SHT31;51087;55.718;21.122;2023-06-26T06:37:59;19.24;86.33
64499;SHT31;51087;55.718;21.122;2023-06-26T06:40:25;19.39;85.75
64499;SHT31;51087;55.718;21.122;2023-06-26T06:42:51;19.54;85.00
64499;SHT31;51087;55.718;21.122;2023-06-26T06:45:16;19.54;84.83
64499;SHT31;51087;55.718;21.122;2023-06-26T06:47:41;19.47;84.92
64499;SHT31;51087;55.718;21.122;2023-06-26T06:50:07;19.44;84.97
64499;SHT31;51087;55.718;21.122;2023-06-26T06:52:39;19.24;85.10
64499;SHT31;51087;55.718;21.122;2023-06-26T06:55:06;19.31;85.43
64499;SHT31;51087;55.718;21.122;2023-06-26T06:57:35;19.39;85.24
64499;SHT31;51087;55.718;21.122;2023-06-26T07:00:07;19.39;85.27
64499;SHT31;51087;55.718;21.122;2023-06-26T07:02:36;19.08;86.42
64499;SHT31;51087;55.718;21.122;2023-06-26T07:05:03;19.13;86.31
64499;SHT31;51087;55.718;21.122;2023-06-26T07:07:30;19.07;86.20
64499;SHT31;51087;55.718;21.122;2023-06-26T07:09:58;19.18;86.28
64499;SHT31;51087;55.718;21.122;2023-06-26T07:12:24;19.31;86.04
64499;SHT31;51087;55.718;21.122;2023-06-26T07:14:49;19.28;84.95
64499;SHT31;51087;55.718;21.122;2023-06-26T07:17:14;19.23;84.17
64499;SHT31;51087;55.718;21.122;2023-06-26T07:19:40;19.25;84.32
64499;SHT31;51087;55.718;21.122;2023-06-26T07:22:05;19.17;84.09
64499;SHT31;51087;55.718;21.122;2023-06-26T07:24:30;19.30;83.85
64499;SHT31;51087;55.718;21.122;2023-06-26T07:26:57;19.44;84.08
64499;SHT31;51087;55.718;21.122;2023-06-26T07:29:22;19.47;85.49
64499;SHT31;51087;55.718;21.122;2023-06-26T07:31:48;19.30;86.32
64499;SHT31;51087;55.718;21.122;2023-06-26T07:34:13;19.28;86.21
64499;SHT31;51087;55.718;21.122;2023-06-26T07:36:39;19.21;86.60
64499;SHT31;51087;55.718;21.122;2023-06-26T07:39:04;19.38;86.06
64499;SHT31;51087;55.718;21.122;2023-06-26T07:41:29;19.45;86.00
64499;SHT31;51087;55.718;21.122;2023-06-26T07:43:57;19.54;85.01
64499;SHT31;51087;55.718;21.122;2023-06-26T07:46:23;19.55;85.59
64499;SHT31;51087;55.718;21.122;2023-06-26T07:48:49;19.59;84.33
64499;SHT31;51087;55.718;21.122;2023-06-26T07:51:14;19.62;84.42
64499;SHT31;51087;55.718;21.122;2023-06-26T07:53:40;19.71;84.37
64499;SHT31;51087;55.718;21.122;2023-06-26T07:56:05;19.81;83.77
64499;SHT31;51087;55.718;21.122;2023-06-26T07:58:31;19.94;83.79
64499;SHT31;51087;55.718;21.122;2023-06-26T08:00:56;19.89;85.02
64499;SHT31;51087;55.718;21.122;2023-06-26T08:03:21;19.86;85.76
64499;SHT31;51087;55.718;21.122;2023-06-26T08:05:47;19.79;85.81
64499;SHT31;51087;55.718;21.122;2023-06-26T08:08:13;19.61;86.09
64499;SHT31;51087;55.718;21.122;2023-06-26T08:10:38;19.72;85.64
64499;SHT31;51087;55.718;21.122;2023-06-26T08:13:03;19.79;84.70
64499;SHT31;51087;55.718;21.122;2023-06-26T08:15:29;20.06;84.44
64499;SHT31;51087;55.718;21.122;2023-06-26T08:17:54;19.90;84.34
64499;SHT31;51087;55.718;21.122;2023-06-26T08:20:19;20.13;85.02
64499;SHT31;51087;55.718;21.122;2023-06-26T08:22:45;20.13;85.08
64499;SHT31;51087;55.718;21.122;2023-06-26T08:25:13;20.27;84.71
64499;SHT31;51087;55.718;21.122;2023-06-26T08:27:38;20.05;84.73
64499;SHT31;51087;55.718;21.122;2023-06-26T08:30:04;19.97;82.49
64499;SHT31;51087;55.718;21.122;2023-06-26T08:32:30;20.00;84.64
64499;SHT31;51087;55.718;21.122;2023-06-26T08:34:55;20.06;84.03
64499;SHT31;51087;55.718;21.122;2023-06-26T08:37:21;20.09;84.44
64499;SHT31;51087;55.718;21.122;2023-06-26T08:39:47;20.10;85.03
64499;SHT31;51087;55.718;21.122;2023-06-26T08:42:12;19.93;84.96
64499;SHT31;51087;55.718;21.122;2023-06-26T08:44:38;19.99;85.49
64499;SHT31;51087;55.718;21.122;2023-06-26T08:47:03;19.90;85.37
64499;SHT31;51087;55.718;21.122;2023-06-26T08:49:46;20.05;84.78
64499;SHT31;51087;55.718;21.122;2023-06-26T08:52:33;20.12;85.14
64499;SHT31;51087;55.718;21.122;2023-06-26T08:55:02;20.36;84.52
64499;SHT31;51087;55.718;21.122;2023-06-26T08:57:32;20.33;84.28
64499;SHT31;51087;55.718;21.122;2023-06-26T08:59:57;20.63;83.82
64499;SHT31;51087;55.718;21.122;2023-06-26T09:02:23;20.55;83.38
64499;SHT31;51087;55.718;21.122;2023-06-26T09:04:50;20.23;83.65
64499;SHT31;51087;55.718;21.122;2023-06-26T09:07:16;20.47;83.07
64499;SHT31;51087;55.718;21.122;2023-06-26T09:09:41;20.48;83.10
64499;SHT31;51087;55.718;21.122;2023-06-26T09:12:08;20.44;83.52
64499;SHT31;51087;55.718;21.122;2023-06-26T09:14:34;20.74;82.96
64499;SHT31;51087;55.718;21.122;2023-06-26T09:17:00;20.76;82.11
64499;SHT31;51087;55.718;21.122;2023-06-26T09:19:26;20.93;81.87
64499;SHT31;51087;55.718;21.122;2023-06-26T09:21:52;20.98;82.12
64499;SHT31;51087;55.718;21.122;2023-06-26T09:24:18;20.67;82.80
64499;SHT31;51087;55.718;21.122;2023-06-26T09:26:44;20.57;82.41
64499;SHT31;51087;55.718;21.122;2023-06-26T09:29:09;20.48;83.14
64499;SHT31;51087;55.718;21.122;2023-06-26T09:31:39;20.64;83.10
64499;SHT31;51087;55.718;21.122;2023-06-26T09:34:05;20.61;83.18
64499;SHT31;51087;55.718;21.122;2023-06-26T09:36:32;20.63;82.98
64499;SHT31;51087;55.718;21.122;2023-06-26T09:39:05;20.69;82.78
64499;SHT31;51087;55.718;21.122;2023-06-26T09:41:34;20.76;82.18
64499;SHT31;51087;55.718;21.122;2023-06-26T09:44:01;21.07;81.98
64499;SHT31;51087;55.718;21.122;2023-06-26T09:46:29;21.07;81.40
64499;SHT31;51087;55.718;21.122;2023-06-26T09:49:09;21.03;81.23
64499;SHT31;51087;55.718;21.122;2023-06-26T09:51:40;21.41;80.87
64499;SHT31;51087;55.718;21.122;2023-06-26T09:54:06;21.73;79.65
64499;SHT31;51087;55.718;21.122;2023-06-26T09:56:32;21.91;78.19
64499;SHT31;51087;55.718;21.122;2023-06-26T09:59:01;22.60;76.22
64499;SHT31;51087;55.718;21.122;2023-06-26T10:01:27;22.57;76.89
64499;SHT31;51087;55.718;21.122;2023-06-26T10:03:56;23.39;74.53
64499;SHT31;51087;55.718;21.122;2023-06-26T10:06:27;24.42;71.09
64499;SHT31;51087;55.718;21.122;2023-06-26T10:08:56;24.93;69.72
64499;SHT31;51087;55.718;21.122;2023-06-26T10:11:22;25.15;68.59
64499;SHT31;51087;55.718;21.122;2023-06-26T10:13:50;26.78;64.30
64499;SHT31;51087;55.718;21.122;2023-06-26T10:16:23;28.65;59.23
64499;SHT31;51087;55.718;21.122;2023-06-26T10:18:53;27.89;60.12
64499;SHT31;51087;55.718;21.122;2023-06-26T10:21:20;28.76;58.50
64499;SHT31;51087;55.718;21.122;2023-06-26T10:23:46;27.84;60.01
64499;SHT31;51087;55.718;21.122;2023-06-26T10:26:14;28.51;57.43
64499;SHT31;51087;55.718;21.122;2023-06-26T10:28:40;28.06;58.36
64499;SHT31;51087;55.718;21.122;2023-06-26T10:31:07;27.44;60.67
64499;SHT31;51087;55.718;21.122;2023-06-26T10:33:34;27.13;61.18
64499;SHT31;51087;55.718;21.122;2023-06-26T10:36:26;26.85;61.38
64499;SHT31;51087;55.718;21.122;2023-06-26T10:38:55;27.51;61.00
64499;SHT31;51087;55.718;21.122;2023-06-26T10:41:22;27.90;60.68
64499;SHT31;51087;55.718;21.122;2023-06-26T10:44:10;29.58;55.92
64499;SHT31;51087;55.718;21.122;2023-06-26T10:46:55;28.81;56.81
64499;SHT31;51087;55.718;21.122;2023-06-26T10:49:27;28.34;58.32
64499;SHT31;51087;55.718;21.122;2023-06-26T10:51:53;29.46;55.38
64499;SHT31;51087;55.718;21.122;2023-06-26T10:54:21;30.76;53.54
64499;SHT31;51087;55.718;21.122;2023-06-26T10:56:50;30.22;53.32
64499;SHT31;51087;55.718;21.122;2023-06-26T10:59:21;30.11;53.99
64499;SHT31;51087;55.718;21.122;2023-06-26T11:01:54;31.01;52.07
64499;SHT31;51087;55.718;21.122;2023-06-26T11:04:46;30.74;52.48
64499;SHT31;51087;55.718;21.122;2023-06-26T11:07:15;31.36;51.19
64499;SHT31;51087;55.718;21.122;2023-06-26T11:09:59;29.64;53.80
64499;SHT31;51087;55.718;21.122;2023-06-26T11:12:34;28.36;56.48
64499;SHT31;51087;55.718;21.122;2023-06-26T11:15:01;28.61;56.45
64499;SHT31;51087;55.718;21.122;2023-06-26T11:17:27;28.75;56.55
64499;SHT31;51087;55.718;21.122;2023-06-26T11:19:54;27.72;58.50
64499;SHT31;51087;55.718;21.122;2023-06-26T11:22:21;28.88;56.10
64499;SHT31;51087;55.718;21.122;2023-06-26T11:24:49;29.09;55.87
64499;SHT31;51087;55.718;21.122;2023-06-26T11:27:18;30.18;53.13
64499;SHT31;51087;55.718;21.122;2023-06-26T11:29:47;29.36;55.13
64499;SHT31;51087;55.718;21.122;2023-06-26T11:32:13;30.37;52.68
64499;SHT31;51087;55.718;21.122;2023-06-26T11:34:39;30.64;52.86
64499;SHT31;51087;55.718;21.122;2023-06-26T11:37:06;30.44;53.05
64499;SHT31;51087;55.718;21.122;2023-06-26T11:39:33;30.05;53.52
64499;SHT31;51087;55.718;21.122;2023-06-26T11:41:59;30.61;52.63
64499;SHT31;51087;55.718;21.122;2023-06-26T11:44:29;30.43;53.58
64499;SHT31;51087;55.718;21.122;2023-06-26T11:46:56;30.76;53.03
64499;SHT31;51087;55.718;21.122;2023-06-26T11:49:22;30.53;52.79
64499;SHT31;51087;55.718;21.122;2023-06-26T11:51:48;30.26;53.03
64499;SHT31;51087;55.718;21.122;2023-06-26T11:54:14;30.29;53.37
64499;SHT31;51087;55.718;21.122;2023-06-26T11:56:40;30.57;52.00
64499;SHT31;51087;55.718;21.122;2023-06-26T11:59:12;29.25;54.99
64499;SHT31;51087;55.718;21.122;2023-06-26T12:01:41;30.02;53.47
64499;SHT31;51087;55.718;21.122;2023-06-26T12:04:08;29.50;54.61
64499;SHT31;51087;55.718;21.122;2023-06-26T12:06:35;28.58;56.61
64499;SHT31;51087;55.718;21.122;2023-06-26T12:09:02;29.43;54.31
64499;SHT31;51087;55.718;21.122;2023-06-26T12:11:30;30.25;53.26
64499;SHT31;51087;55.718;21.122;2023-06-26T12:13:57;32.07;49.60
64499;SHT31;51087;55.718;21.122;2023-06-26T12:16:22;29.78;53.81
64499;SHT31;51087;55.718;21.122;2023-06-26T12:18:48;31.83;50.31
64499;SHT31;51087;55.718;21.122;2023-06-26T12:21:52;31.56;49.97
64499;SHT31;51087;55.718;21.122;2023-06-26T12:24:21;31.76;50.29
64499;SHT31;51087;55.718;21.122;2023-06-26T12:26:54;31.74;49.92
64499;SHT31;51087;55.718;21.122;2023-06-26T12:29:29;31.83;49.91
64499;SHT31;51087;55.718;21.122;2023-06-26T12:31:56;33.27;47.66
64499;SHT31;51087;55.718;21.122;2023-06-26T12:34:30;34.05;45.77
64499;SHT31;51087;55.718;21.122;2023-06-26T12:37:04;33.96;46.34
64499;SHT31;51087;55.718;21.122;2023-06-26T12:39:45;33.48;47.22
64499;SHT31;51087;55.718;21.122;2023-06-26T12:42:14;33.95;45.60
64499;SHT31;51087;55.718;21.122;2023-06-26T12:44:40;32.79;47.59
64499;SHT31;51087;55.718;21.122;2023-06-26T12:47:05;34.51;45.35
64499;SHT31;51087;55.718;21.122;2023-06-26T12:49:39;32.28;48.86
64499;SHT31;51087;55.718;21.122;2023-06-26T12:52:07;31.80;49.58
64499;SHT31;51087;55.718;21.122;2023-06-26T12:54:37;34.85;45.58
64499;SHT31;51087;55.718;21.122;2023-06-26T12:57:03;31.23;50.87
64499;SHT31;51087;55.718;21.122;2023-06-26T12:59:29;31.94;50.17
64499;SHT31;51087;55.718;21.122;2023-06-26T13:01:55;31.49;50.61
64499;SHT31;51087;55.718;21.122;2023-06-26T13:04:21;30.80;52.13
64499;SHT31;51087;55.718;21.122;2023-06-26T13:06:46;32.10;50.03
64499;SHT31;51087;55.718;21.122;2023-06-26T13:09:12;30.81;51.66
64499;SHT31;51087;55.718;21.122;2023-06-26T13:11:38;31.22;51.43
64499;SHT31;51087;55.718;21.122;2023-06-26T13:14:03;31.86;50.34
64499;SHT31;51087;55.718;21.122;2023-06-26T13:16:29;31.36;51.17
64499;SHT31;51087;55.718;21.122;2023-06-26T13:18:55;31.63;51.23
64499;SHT31;51087;55.718;21.122;2023-06-26T13:21:21;31.63;50.75
64499;SHT31;51087;55.718;21.122;2023-06-26T13:23:46;30.36;53.16
64499;SHT31;51087;55.718;21.122;2023-06-26T13:26:12;32.10;50.40
64499;SHT31;51087;55.718;21.122;2023-06-26T13:28:37;31.84;49.87
64499;SHT31;51087;55.718;21.122;2023-06-26T13:31:03;32.15;50.09
64499;SHT31;51087;55.718;21.122;2023-06-26T13:33:30;31.94;50.75
64499;SHT31;51087;55.718;21.122;2023-06-26T13:35:56;32.13;49.96
64499;SHT31;51087;55.718;21.122;2023-06-26T13:38:22;31.58;50.53
64499;SHT31;51087;55.718;21.122;2023-06-26T13:40:54;34.81;45.53
64499;SHT31;51087;55.718;21.122;2023-06-26T13:43:26;36.09;42.77
64499;SHT31;51087;55.718;21.122;2023-06-26T13:45:52;35.20;43.72
64499;SHT31;51087;55.718;21.122;2023-06-26T13:48:17;32.11;49.19
64499;SHT31;51087;55.718;21.122;2023-06-26T13:50:43;32.34;49.22
64499;SHT31;51087;55.718;21.122;2023-06-26T13:53:08;32.11;49.41
64499;SHT31;51087;55.718;21.122;2023-06-26T13:55:35;33.24;47.50
64499;SHT31;51087;55.718;21.122;2023-06-26T13:58:01;31.33;50.26
64499;SHT31;51087;55.718;21.122;2023-06-26T14:00:31;32.10;50.10
64499;SHT31;51087;55.718;21.122;2023-06-26T14:02:56;32.78;48.39
64499;SHT31;51087;55.718;21.122;2023-06-26T14:05:22;32.08;49.42
64499;SHT31;51087;55.718;21.122;2023-06-26T14:07:48;31.91;50.04
64499;SHT31;51087;55.718;21.122;2023-06-26T14:10:14;31.07;51.22
64499;SHT31;51087;55.718;21.122;2023-06-26T14:12:40;32.34;49.10
64499;SHT31;51087;55.718;21.122;2023-06-26T14:15:06;32.38;49.51
64499;SHT31;51087;55.718;21.122;2023-06-26T14:17:31;32.20;49.99
64499;SHT31;51087;55.718;21.122;2023-06-26T14:19:57;32.38;49.12
64499;SHT31;51087;55.718;21.122;2023-06-26T14:22:22;33.27;47.60
64499;SHT31;51087;55.718;21.122;2023-06-26T14:24:49;33.44;47.29
64499;SHT31;51087;55.718;21.122;2023-06-26T14:27:14;34.06;45.90
64499;SHT31;51087;55.718;21.122;2023-06-26T14:29:40;35.08;44.87
64499;SHT31;51087;55.718;21.122;2023-06-26T14:32:06;34.61;44.85
64499;SHT31;51087;55.718;21.122;2023-06-26T14:34:32;32.93;47.58
64499;SHT31;51087;55.718;21.122;2023-06-26T14:36:57;31.39;49.67
64499;SHT31;51087;55.718;21.122;2023-06-26T14:39:23;30.81;51.83
64499;SHT31;51087;55.718;21.122;2023-06-26T14:41:49;30.15;53.29
64499;SHT31;51087;55.718;21.122;2023-06-26T14:44:14;31.23;51.76
64499;SHT31;51087;55.718;21.122;2023-06-26T14:46:40;30.55;52.67
64499;SHT31;51087;55.718;21.122;2023-06-26T14:49:05;30.53;52.87
64499;SHT31;51087;55.718;21.122;2023-06-26T14:51:31;30.35;53.48
64499;SHT31;51087;55.718;21.122;2023-06-26T14:53:57;29.05;55.74
64499;SHT31;51087;55.718;21.122;2023-06-26T14:56:22;29.85;54.86
64499;SHT31;51087;55.718;21.122;2023-06-26T14:58:47;29.98;54.48
64499;SHT31;51087;55.718;21.122;2023-06-26T15:01:13;30.50;53.24
64499;SHT31;51087;55.718;21.122;2023-06-26T15:03:41;31.10;52.48
64499;SHT31;51087;55.718;21.122;2023-06-26T15:06:07;32.05;50.07
64499;SHT31;51087;55.718;21.122;2023-06-26T15:08:32;32.42;48.64
64499;SHT31;51087;55.718;21.122;2023-06-26T15:10:57;31.84;50.40
64499;SHT31;51087;55.718;21.122;2023-06-26T15:13:23;33.37;48.10
64499;SHT31;51087;55.718;21.122;2023-06-26T15:15:48;33.52;46.84
64499;SHT31;51087;55.718;21.122;2023-06-26T15:18:14;31.35;50.58
64499;SHT31;51087;55.718;21.122;2023-06-26T15:20:40;30.46;52.54